createdAt,value
2023-02-14T00:01:10.652Z,26.30
2023-02-14T00:03:37.410Z,24.97
2023-02-14T00:06:12.893Z,19.27
2023-02-14T00:08:41.246Z,17.53
2023-02-14T00:11:10.769Z,15.30
2023-02-14T00:13:37.621Z,19.17
2023-02-14T00:16:04.582Z,16.97
2023-02-14T00:18:50.540Z,17.37
2023-02-14T00:21:17.301Z,15.93
2023-02-14T00:23:44.009Z,17.33
2023-02-14T00:26:15.098Z,15.67
2023-02-14T00:28:42.252Z,16.70
2023-02-14T00:31:09.605Z,15.77
2023-02-14T00:33:36.574Z,16.20
2023-02-14T00:36:04.987Z,16.53
2023-02-14T00:38:31.791Z,17.50
2023-02-14T00:40:59.010Z,16.77
2023-02-14T00:43:25.900Z,16.13
2023-02-14T00:45:52.642Z,16.63
2023-02-14T00:48:19.536Z,18.63
2023-02-14T00:50:46.300Z,20.63
2023-02-14T00:53:13.673Z,21.83
2023-02-14T00:55:40.739Z,18.97
2023-02-14T00:58:07.568Z,20.53
2023-02-14T01:00:34.343Z,17.03
2023-02-14T01:03:01.130Z,16.30
2023-02-14T01:05:27.908Z,15.93
2023-02-14T01:07:54.669Z,16.53
2023-02-14T01:10:21.456Z,17.07
2023-02-14T01:12:48.188Z,16.47
2023-02-14T01:15:14.962Z,17.30
2023-02-14T01:17:41.671Z,16.57
2023-02-14T01:20:09.338Z,17.50
2023-02-14T01:22:37.210Z,16.27
2023-02-14T01:25:05.098Z,16.63
2023-02-14T01:27:31.903Z,19.80
2023-02-14T01:29:58.750Z,16.43
2023-02-14T01:32:25.512Z,16.77
2023-02-14T01:34:52.367Z,14.47
2023-02-14T01:37:19.106Z,16.67
2023-02-14T01:39:45.896Z,17.87
2023-02-14T01:42:12.710Z,19.43
2023-02-14T01:44:39.454Z,21.50
2023-02-14T01:47:09.970Z,17.53
2023-02-14T01:49:41.335Z,19.40
2023-02-14T01:52:15.547Z,18.87
2023-02-14T01:54:52.147Z,18.03
2023-02-14T01:57:21.616Z,17.40
2023-02-14T01:59:53.714Z,15.97
2023-02-14T02:02:23.875Z,17.53
2023-02-14T02:04:55.816Z,17.93
2023-02-14T02:07:26.632Z,17.57
2023-02-14T02:09:58.612Z,15.93
2023-02-14T02:12:25.435Z,15.67
2023-02-14T02:14:55.337Z,17.63
2023-02-14T02:17:53.213Z,15.53
2023-02-14T02:20:35.707Z,17.10
2023-02-14T02:23:29.004Z,15.30
2023-02-14T02:26:21.557Z,15.37
2023-02-14T02:28:51.440Z,17.03
2023-02-14T02:31:51.632Z,17.23
2023-02-14T02:34:44.214Z,16.30
2023-02-14T02:37:26.017Z,15.17
2023-02-14T02:40:07.179Z,14.50
2023-02-14T02:43:03.035Z,15.80
2023-02-14T02:46:04.738Z,15.87
2023-02-14T02:49:02.792Z,16.40
2023-02-14T02:52:10.807Z,16.27
2023-02-14T02:54:42.545Z,17.33
2023-02-14T02:57:24.160Z,15.63
2023-02-14T02:59:54.256Z,17.80
2023-02-14T03:02:31.461Z,17.13
2023-02-14T03:05:04.628Z,14.03
2023-02-14T03:07:37.180Z,13.73
2023-02-14T03:10:09.623Z,14.73
2023-02-14T03:12:39.252Z,16.33
2023-02-14T03:15:11.955Z,15.13
2023-02-14T03:17:51.160Z,16.27
2023-02-14T03:20:22.117Z,18.87
2023-02-14T03:23:17.369Z,14.70
2023-02-14T03:25:53.565Z,16.53
2023-02-14T03:28:35.819Z,19.63
2023-02-14T03:31:23.101Z,15.77
2023-02-14T03:34:21.455Z,16.87
2023-02-14T03:37:20.051Z,15.17
2023-02-14T03:40:13.249Z,16.17
2023-02-14T03:43:04.147Z,14.33
2023-02-14T03:45:35.740Z,14.87
2023-02-14T03:48:11.281Z,15.67
2023-02-14T03:50:40.452Z,15.67
2023-02-14T03:53:09.978Z,15.27
2023-02-14T03:55:43.529Z,16.47
2023-02-14T03:58:26.545Z,14.33
2023-02-14T04:01:03.161Z,14.03
2023-02-14T04:03:33.769Z,15.03
2023-02-14T04:06:01.094Z,14.00
2023-02-14T04:08:29.560Z,13.07
2023-02-14T04:11:00.536Z,14.30
2023-02-14T04:13:28.115Z,12.93
2023-02-14T04:15:55.250Z,15.30
2023-02-14T04:18:40.950Z,14.37
2023-02-14T04:21:07.723Z,13.77
2023-02-14T04:23:34.538Z,15.70
2023-02-14T04:26:03.811Z,13.03
2023-02-14T04:28:31.200Z,18.40
2023-02-14T04:31:02.477Z,14.07
2023-02-14T04:33:29.965Z,13.97
2023-02-14T04:35:56.974Z,14.27
2023-02-14T04:38:23.746Z,14.50
2023-02-14T04:40:51.328Z,13.30
2023-02-14T04:43:18.840Z,14.30
2023-02-14T04:45:47.764Z,14.70
2023-02-14T04:48:14.850Z,14.23
2023-02-14T04:50:41.665Z,14.77
2023-02-14T04:53:08.432Z,14.67
2023-02-14T04:55:35.249Z,17.93
2023-02-14T04:58:01.976Z,13.97
2023-02-14T05:00:28.758Z,16.57
2023-02-14T05:02:55.637Z,14.50
2023-02-14T05:05:22.366Z,14.00
2023-02-14T05:07:49.064Z,13.00
2023-02-14T05:10:15.952Z,15.80
2023-02-14T05:12:42.844Z,16.20
2023-02-14T05:15:10.157Z,14.63
2023-02-14T05:17:37.323Z,15.93
2023-02-14T05:20:05.918Z,15.50
2023-02-14T05:22:32.764Z,12.13
2023-02-14T05:24:59.564Z,15.10
2023-02-14T05:27:26.347Z,12.70
2023-02-14T05:29:53.136Z,15.23
2023-02-14T05:32:19.978Z,13.37
2023-02-14T05:34:46.856Z,15.03
2023-02-14T05:37:13.675Z,13.70
2023-02-14T05:39:40.444Z,14.87
2023-02-14T05:42:07.178Z,14.30
2023-02-14T05:44:33.979Z,15.80
2023-02-14T05:47:00.771Z,17.57
2023-02-14T05:49:27.498Z,15.87
2023-02-14T05:51:54.354Z,16.10
2023-02-14T05:54:21.080Z,15.40
2023-02-14T05:56:47.851Z,17.07
2023-02-14T05:59:14.632Z,16.80
2023-02-14T06:01:41.418Z,14.77
2023-02-14T06:04:08.266Z,16.43
2023-02-14T06:06:36.683Z,14.47
2023-02-14T06:09:04.019Z,18.63
2023-02-14T06:11:30.888Z,16.67
2023-02-14T06:13:57.707Z,17.50
2023-02-14T06:16:24.529Z,18.60
2023-02-14T06:18:51.400Z,19.27
2023-02-14T06:21:18.207Z,16.87
2023-02-14T06:23:45.010Z,17.57
2023-02-14T06:26:11.899Z,14.77
2023-02-14T06:28:38.712Z,17.03
2023-02-14T06:31:05.737Z,15.43
2023-02-14T06:33:32.575Z,17.73
2023-02-14T06:35:59.288Z,14.97
2023-02-14T06:38:26.088Z,15.67
2023-02-14T06:40:52.794Z,14.97
2023-02-14T06:43:19.477Z,17.40
2023-02-14T06:45:47.035Z,17.13
2023-02-14T06:48:13.790Z,16.60
2023-02-14T06:50:40.618Z,16.47
2023-02-14T06:53:07.548Z,17.47
2023-02-14T06:55:34.389Z,19.67
2023-02-14T06:58:01.170Z,16.23
2023-02-14T07:00:28.088Z,17.93
2023-02-14T07:02:54.914Z,17.87
2023-02-14T07:05:22.009Z,22.37
2023-02-14T07:07:49.011Z,16.40
2023-02-14T07:10:16.417Z,17.03
2023-02-14T07:12:43.210Z,19.77
2023-02-14T07:15:12.152Z,18.70
2023-02-14T07:17:39.404Z,16.13
2023-02-14T07:20:07.865Z,16.17
2023-02-14T07:22:35.119Z,19.37
2023-02-14T07:25:02.202Z,20.23
2023-02-14T07:27:29.096Z,24.23
2023-02-14T07:29:56.161Z,21.40
2023-02-14T07:32:23.678Z,20.87
2023-02-14T07:34:51.117Z,20.73
2023-02-14T07:37:18.268Z,19.27
2023-02-14T07:39:47.084Z,21.47
2023-02-14T07:42:14.981Z,24.80
2023-02-14T07:44:42.269Z,21.57
2023-02-14T07:47:10.193Z,19.83
2023-02-14T07:49:37.338Z,22.33
2023-02-14T07:52:04.941Z,21.27
2023-02-14T07:54:31.960Z,18.77
2023-02-14T07:56:58.935Z,20.63
2023-02-14T07:59:26.236Z,24.20
2023-02-14T08:01:53.363Z,22.80
2023-02-14T08:04:22.292Z,24.17
2023-02-14T08:06:49.150Z,24.03
2023-02-14T08:09:24.666Z,24.03
2023-02-14T08:12:15.321Z,24.03
2023-02-14T08:14:43.158Z,26.47
2023-02-14T08:17:13.393Z,26.63
2023-02-14T08:19:41.068Z,24.43
2023-02-14T08:22:08.358Z,25.30
2023-02-14T08:24:35.083Z,22.17
2023-02-14T08:27:02.209Z,25.50
2023-02-14T08:29:28.992Z,23.00
2023-02-14T08:31:55.906Z,30.47
2023-02-14T08:34:22.750Z,27.23
2023-02-14T08:36:49.642Z,23.03
2023-02-14T08:39:16.424Z,20.63
2023-02-14T08:41:43.502Z,26.87
2023-02-14T08:44:10.351Z,24.60
2023-02-14T08:46:37.334Z,22.27
2023-02-14T08:49:04.185Z,20.53
2023-02-14T08:51:31.005Z,20.53
2023-02-14T08:53:57.853Z,17.80
2023-02-14T08:56:24.932Z,15.53
2023-02-14T08:58:53.304Z,26.67
2023-02-14T09:01:20.664Z,28.30
2023-02-14T09:03:47.621Z,26.50
2023-02-14T09:06:17.509Z,20.33
2023-02-14T09:08:45.985Z,20.00
2023-02-14T09:11:18.595Z,20.60
2023-02-14T09:13:46.842Z,19.17
2023-02-14T09:16:16.596Z,16.43
2023-02-14T09:18:44.993Z,26.10
2023-02-14T09:21:16.401Z,20.60
2023-02-14T09:23:43.368Z,21.20
2023-02-14T09:26:13.935Z,16.67
2023-02-14T09:28:41.121Z,17.47
2023-02-14T09:31:22.806Z,17.87
2023-02-14T09:33:50.924Z,12.37
2023-02-14T09:36:20.768Z,15.03
2023-02-14T09:38:47.808Z,18.80
2023-02-14T09:42:00.858Z,13.03
2023-02-14T09:44:44.143Z,14.63
2023-02-14T09:47:48.448Z,13.07
2023-02-14T09:50:24.051Z,12.07
2023-02-14T09:52:55.636Z,13.70
2023-02-14T09:55:24.102Z,15.10
2023-02-14T09:58:19.843Z,16.13
2023-02-14T10:00:56.011Z,17.27
2023-02-14T10:03:41.373Z,11.67
2023-02-14T10:06:27.300Z,13.27
2023-02-14T10:09:17.175Z,11.53
2023-02-14T10:11:47.761Z,15.17
2023-02-14T10:14:19.019Z,14.03
2023-02-14T10:17:04.347Z,15.03
2023-02-14T10:19:40.273Z,13.13
2023-02-14T10:22:14.952Z,13.47
2023-02-14T10:25:01.271Z,12.17
2023-02-14T10:27:42.372Z,14.23
2023-02-14T10:30:13.002Z,12.77
2023-02-14T10:32:47.731Z,11.90
2023-02-14T10:35:49.326Z,34.23
2023-02-14T10:38:37.461Z,22.03
2023-02-14T10:41:04.282Z,17.70
2023-02-14T10:43:52.499Z,22.97
2023-02-14T10:46:33.789Z,14.07
2023-02-14T10:49:14.254Z,16.87
2023-02-14T10:51:52.861Z,13.80
2023-02-14T10:54:26.417Z,12.90
2023-02-14T10:57:05.591Z,13.53
2023-02-14T10:59:48.569Z,13.30
2023-02-14T11:02:18.385Z,11.03
2023-02-14T11:04:47.269Z,12.80
2023-02-14T11:07:19.718Z,12.80
2023-02-14T11:09:46.642Z,12.57
2023-02-14T11:12:37.540Z,15.50
2023-02-14T11:15:20.193Z,13.53
2023-02-14T11:17:46.965Z,12.87
2023-02-14T11:20:22.866Z,11.93
2023-02-14T11:22:50.447Z,12.97
2023-02-14T11:25:26.254Z,13.10
2023-02-14T11:28:18.075Z,13.27
2023-02-14T11:30:47.640Z,14.40
2023-02-14T11:33:39.460Z,12.00
2023-02-14T11:36:13.316Z,13.17
2023-02-14T11:38:42.056Z,11.30
2023-02-14T11:41:13.409Z,13.33
2023-02-14T11:43:43.386Z,12.23
2023-02-14T11:46:15.241Z,14.90
2023-02-14T11:49:03.698Z,12.40
2023-02-14T11:51:40.605Z,11.70
2023-02-14T11:54:22.332Z,11.33
2023-02-14T11:56:53.962Z,13.77
2023-02-14T11:59:46.092Z,13.83
2023-02-14T12:02:38.075Z,12.13
2023-02-14T12:05:25.612Z,11.87
2023-02-14T12:08:02.241Z,13.30
2023-02-14T12:10:35.305Z,14.23
2023-02-14T12:13:24.188Z,11.07
2023-02-14T12:15:54.137Z,12.63
2023-02-14T12:18:40.840Z,13.23
2023-02-14T12:21:31.759Z,12.50
2023-02-14T12:24:17.859Z,14.20
2023-02-14T12:27:12.808Z,12.37
2023-02-14T12:29:45.696Z,15.13
2023-02-14T12:32:25.337Z,14.13
2023-02-14T12:35:03.343Z,14.33
2023-02-14T12:38:02.781Z,13.07
2023-02-14T12:40:42.634Z,13.50
2023-02-14T12:43:28.188Z,14.10
2023-02-14T12:46:16.853Z,12.33
2023-02-14T12:48:55.789Z,14.30
2023-02-14T12:51:54.153Z,12.20
2023-02-14T12:54:32.278Z,13.50
2023-02-14T12:57:23.264Z,13.03
2023-02-14T13:00:01.607Z,12.53
2023-02-14T13:02:53.109Z,12.90
2023-02-14T13:05:32.024Z,13.87
2023-02-14T13:08:20.792Z,12.70
2023-02-14T13:11:20.879Z,12.70
2023-02-14T13:14:04.692Z,12.90
2023-02-14T13:16:45.971Z,12.53
2023-02-14T13:19:46.539Z,11.87
2023-02-14T13:22:25.406Z,11.90
2023-02-14T13:24:57.047Z,12.83
2023-02-14T13:27:28.784Z,10.63
2023-02-14T13:30:04.988Z,11.30
2023-02-14T13:32:39.090Z,12.03
2023-02-14T13:35:07.728Z,11.87
2023-02-14T13:37:37.068Z,11.47
2023-02-14T13:40:08.194Z,11.50
2023-02-14T13:42:50.163Z,11.57
2023-02-14T13:45:35.238Z,13.23
2023-02-14T13:48:17.168Z,14.57
2023-02-14T13:51:00.901Z,11.77
2023-02-14T13:53:45.942Z,10.90
2023-02-14T13:56:12.698Z,11.50
2023-02-14T13:58:52.357Z,13.23
2023-02-14T14:01:50.049Z,12.13
2023-02-14T14:04:30.310Z,12.00
2023-02-14T14:07:02.971Z,14.13
2023-02-14T14:09:45.431Z,10.60
2023-02-14T14:12:27.850Z,14.07
2023-02-14T14:15:07.131Z,11.33
2023-02-14T14:18:12.805Z,10.03
2023-02-14T14:20:45.095Z,10.70
2023-02-14T14:24:02.571Z,18.43
2023-02-14T14:26:37.788Z,14.90
2023-02-14T14:29:17.017Z,13.10
2023-02-14T14:31:45.090Z,11.17
2023-02-14T14:34:18.019Z,10.43
2023-02-14T14:36:45.516Z,13.73
2023-02-14T14:39:12.726Z,12.10
2023-02-14T14:41:41.418Z,10.50
2023-02-14T14:44:08.363Z,10.47
2023-02-14T14:46:35.327Z,9.83
2023-02-14T14:49:02.959Z,10.83
2023-02-14T14:51:35.566Z,10.07
2023-02-14T14:54:06.117Z,11.40
2023-02-14T14:56:36.788Z,12.90
2023-02-14T14:59:19.624Z,15.17
2023-02-14T15:01:47.744Z,9.57
2023-02-14T15:04:14.513Z,12.10
2023-02-14T15:06:42.094Z,14.47
2023-02-14T15:09:21.823Z,10.00
2023-02-14T15:12:10.747Z,10.37
2023-02-14T15:14:41.819Z,10.10
2023-02-14T15:17:32.240Z,13.67
2023-02-14T15:20:04.194Z,11.03
2023-02-14T15:22:45.659Z,10.00
2023-02-14T15:25:21.981Z,9.20
2023-02-14T15:27:49.346Z,11.50
2023-02-14T15:30:24.016Z,10.00
2023-02-14T15:32:52.255Z,10.97
2023-02-14T15:35:29.135Z,9.47
2023-02-14T15:38:01.429Z,12.75
2023-02-14T15:40:33.887Z,13.13
2023-02-14T15:43:34.132Z,8.87
2023-02-14T15:46:36.750Z,9.53
2023-02-14T15:49:10.165Z,10.20
2023-02-14T15:51:38.703Z,8.97
2023-02-14T15:54:18.181Z,10.07
2023-02-14T15:56:49.031Z,17.70
2023-02-14T15:59:36.806Z,13.73
2023-02-14T16:02:24.160Z,11.20
2023-02-14T16:04:51.202Z,13.57
2023-02-14T16:07:29.533Z,14.50
2023-02-14T16:10:21.347Z,15.23
2023-02-14T16:13:14.159Z,14.43
2023-02-14T16:15:57.639Z,16.77
2023-02-14T16:18:59.891Z,13.63
2023-02-14T16:21:27.969Z,18.43
2023-02-14T16:24:06.916Z,12.97
2023-02-14T16:26:39.288Z,12.87
2023-02-14T16:29:08.431Z,16.20
2023-02-14T16:31:36.260Z,11.47
2023-02-14T16:34:03.096Z,11.33
2023-02-14T16:36:31.961Z,19.47
2023-02-14T16:39:02.109Z,13.97
2023-02-14T16:41:30.586Z,10.40
2023-02-14T16:43:57.445Z,13.77
2023-02-14T16:46:29.490Z,18.40
2023-02-14T16:48:57.255Z,13.93
2023-02-14T16:51:28.009Z,16.23
2023-02-14T16:53:57.824Z,13.63
2023-02-14T16:56:44.650Z,13.87
2023-02-14T16:59:11.448Z,13.07
2023-02-14T17:01:38.573Z,12.07
2023-02-14T17:04:05.514Z,12.83
2023-02-14T17:06:34.924Z,21.00
2023-02-14T17:09:09.279Z,13.60
2023-02-14T17:11:40.629Z,14.10
2023-02-14T17:14:08.239Z,14.73
2023-02-14T17:16:35.109Z,19.27
2023-02-14T17:19:03.150Z,16.43
2023-02-14T17:21:30.319Z,13.50
2023-02-14T17:23:57.258Z,14.77
2023-02-14T17:26:24.243Z,15.53
2023-02-14T17:28:51.031Z,17.20
2023-02-14T17:31:18.165Z,17.93
2023-02-14T17:33:45.061Z,19.10
2023-02-14T17:36:13.468Z,22.67
2023-02-14T17:38:43.624Z,15.47
2023-02-14T17:41:16.499Z,14.10
2023-02-14T17:43:43.507Z,19.27
2023-02-14T17:46:11.068Z,16.30
2023-02-14T17:48:37.844Z,17.60
2023-02-14T17:51:09.606Z,15.63
2023-02-14T17:53:36.421Z,17.23
2023-02-14T17:56:11.544Z,18.83
2023-02-14T17:58:38.994Z,17.10
2023-02-14T18:01:11.329Z,18.27
2023-02-14T18:03:39.312Z,21.83
2023-02-14T18:06:07.095Z,18.67
2023-02-14T18:08:36.421Z,19.53
2023-02-14T18:11:07.586Z,20.07
2023-02-14T18:13:35.090Z,19.37
2023-02-14T18:16:06.105Z,19.73
2023-02-14T18:18:33.223Z,18.20
2023-02-14T18:21:02.557Z,16.73
2023-02-14T18:23:33.219Z,23.53
2023-02-14T18:26:04.521Z,17.33
2023-02-14T18:28:32.580Z,16.70
2023-02-14T18:31:10.743Z,40.67
2023-02-14T18:33:37.939Z,22.43
2023-02-14T18:36:07.305Z,22.87
2023-02-14T18:38:34.974Z,20.13
2023-02-14T18:41:03.353Z,17.63
2023-02-14T18:43:30.235Z,20.13
2023-02-14T18:46:05.834Z,20.33
2023-02-14T18:48:33.418Z,18.83
2023-02-14T18:51:14.199Z,21.43
2023-02-14T18:53:42.658Z,23.03
2023-02-14T18:56:13.415Z,21.43
2023-02-14T18:58:44.277Z,22.43
2023-02-14T19:01:12.737Z,22.57
2023-02-14T19:03:40.534Z,19.07
2023-02-14T19:06:08.453Z,20.90
2023-02-14T19:08:40.803Z,21.20
2023-02-14T19:11:16.546Z,23.00
2023-02-14T19:13:48.836Z,22.93
2023-02-14T19:16:19.108Z,23.43
2023-02-14T19:18:46.391Z,19.90
2023-02-14T19:21:19.916Z,19.73
2023-02-14T19:23:47.354Z,17.90
2023-02-14T19:26:19.625Z,19.33
2023-02-14T19:28:48.291Z,19.50
2023-02-14T19:31:16.540Z,16.10
2023-02-14T19:33:46.369Z,21.13
2023-02-14T19:36:16.286Z,19.93
2023-02-14T19:38:45.197Z,17.20
2023-02-14T19:41:17.673Z,20.57
2023-02-14T19:43:48.826Z,18.73
2023-02-14T19:46:17.632Z,17.37
2023-02-14T19:48:47.355Z,17.17
2023-02-14T19:51:16.445Z,18.33
2023-02-14T19:53:44.548Z,19.27
2023-02-14T19:56:11.893Z,18.10
2023-02-14T19:58:38.973Z,18.70
2023-02-14T20:01:06.049Z,19.00
2023-02-14T20:03:33.162Z,19.43
2023-02-14T20:06:00.015Z,17.37
2023-02-14T20:08:26.795Z,16.93
2023-02-14T20:10:53.523Z,17.20
2023-02-14T20:13:20.281Z,18.13
2023-02-14T20:15:47.112Z,14.80
2023-02-14T20:18:13.994Z,16.83
2023-02-14T20:21:02.345Z,18.87
2023-02-14T20:23:31.249Z,18.87
2023-02-14T20:25:58.177Z,17.23
2023-02-14T20:28:25.060Z,18.37
2023-02-14T20:30:51.909Z,15.90
2023-02-14T20:33:18.765Z,16.67
2023-02-14T20:35:45.553Z,16.80
2023-02-14T20:38:12.463Z,15.37
2023-02-14T20:40:40.663Z,15.87
2023-02-14T20:43:07.483Z,19.57
2023-02-14T20:45:34.348Z,19.30
2023-02-14T20:48:04.187Z,15.93
2023-02-14T20:50:31.629Z,18.17
2023-02-14T20:52:58.665Z,17.10
2023-02-14T20:55:27.787Z,21.90
2023-02-14T20:57:57.045Z,22.77
2023-02-14T21:00:25.637Z,21.23
2023-02-14T21:02:52.746Z,28.43
2023-02-14T21:05:21.039Z,24.30
2023-02-14T21:07:47.934Z,17.73
2023-02-14T21:10:15.381Z,17.23
2023-02-14T21:12:42.122Z,21.80
2023-02-14T21:15:10.235Z,19.00
2023-02-14T21:17:37.887Z,22.17
2023-02-14T21:20:06.321Z,20.80
2023-02-14T21:22:33.084Z,31.57
2023-02-14T21:24:59.929Z,32.63
2023-02-14T21:27:26.825Z,22.20
2023-02-14T21:29:53.764Z,19.97
2023-02-14T21:32:20.669Z,18.73
2023-02-14T21:34:48.258Z,16.33
2023-02-14T21:37:15.270Z,20.40
2023-02-14T21:39:42.203Z,18.97
2023-02-14T21:42:11.656Z,19.00
2023-02-14T21:44:57.158Z,16.80
2023-02-14T21:47:23.939Z,14.83
2023-02-14T21:50:09.035Z,17.23
2023-02-14T21:52:36.757Z,14.37
2023-02-14T21:55:03.669Z,16.87
2023-02-14T21:57:31.170Z,17.00
2023-02-14T21:59:57.878Z,16.57
2023-02-14T22:02:24.710Z,18.63
2023-02-14T22:04:51.693Z,14.70
2023-02-14T22:07:18.448Z,16.43
2023-02-14T22:09:45.183Z,14.90
2023-02-14T22:12:11.967Z,16.60
2023-02-14T22:14:38.723Z,15.10
2023-02-14T22:17:05.521Z,15.50
2023-02-14T22:19:32.262Z,12.37
2023-02-14T22:21:59.090Z,16.73
2023-02-14T22:24:25.932Z,15.30
2023-02-14T22:26:52.689Z,16.77
2023-02-14T22:29:19.586Z,17.17
2023-02-14T22:31:46.574Z,16.43
2023-02-14T22:34:17.710Z,17.03
2023-02-14T22:36:44.631Z,15.83
2023-02-14T22:39:18.134Z,15.33
2023-02-14T22:41:45.000Z,17.13
2023-02-14T22:44:13.289Z,15.87
2023-02-14T22:46:40.184Z,18.40
2023-02-14T22:49:07.612Z,18.63
2023-02-14T22:51:44.617Z,21.33
2023-02-14T22:54:14.227Z,15.97
2023-02-14T22:56:43.844Z,17.57
2023-02-14T22:59:23.852Z,16.13
2023-02-14T23:01:52.527Z,17.97
2023-02-14T23:04:24.971Z,15.93
2023-02-14T23:06:53.103Z,16.37
2023-02-14T23:09:21.538Z,15.90
2023-02-14T23:11:49.041Z,15.33
2023-02-14T23:14:35.946Z,16.90
2023-02-14T23:17:15.007Z,17.87
2023-02-14T23:20:01.434Z,14.87
2023-02-14T23:22:30.677Z,16.87
2023-02-14T23:24:59.676Z,15.13
2023-02-14T23:27:30.742Z,17.50
2023-02-14T23:29:57.962Z,16.27
2023-02-14T23:32:24.732Z,16.57
2023-02-14T23:34:51.529Z,13.23
2023-02-14T23:37:18.339Z,16.57
2023-02-14T23:39:45.080Z,15.53
2023-02-14T23:42:14.680Z,14.17
2023-02-14T23:44:43.150Z,14.77
2023-02-14T23:47:10.407Z,16.13
2023-02-14T23:49:38.930Z,19.53
2023-02-14T23:52:07.962Z,16.87
2023-02-14T23:54:35.116Z,17.63
2023-02-14T23:57:02.295Z,20.27
2023-02-14T23:59:29.304Z,21.53
